Terminal Aerodrome Forecast
Issued by NWS

Home | Current Version | Previous Version | Graphics & Text | Print | Product List | Glossary On
Versions: 1 2 3 4 5 6 7 8 9 10 11 12 13 14 15 16 17 18
000
FTUS43 KICT 081000 AAB
TAFRSL
TAF AMD
KRSL 081042Z 0811/0906 01010KT P6SM VCTS SCT050 OVC100CB
      TEMPO 0811/0812 5SM TSRA OVC040CB
     FM081700 01011KT P6SM SCT150
     FM090000 VRB04KT P6SM SCT150=

USA.gov is the U.S. government's official web portal to all federal, state and local government web resources and services.